Time;durP1;ratioP1;P1;durP2;ratioP2;P2;SDS_P1;SDS_P2;PMS_P1;PMS_P2;Temp;Humidity;BMP_temperature;BMP_pressure;BME280_temperature;BME280_humidity;BME280_pressure;Samples;Min_cycle;Max_cycle;Signal;HPM_P1;HPM_P2
2022/11/06 00:02:15;;;;;;;45.92;25.35;;;7.30;99.90;;;;;;5012375;28;20030;-60
2022/11/06 00:04:41;;;;;;;44.92;22.63;;;7.30;99.90;;;;;;5011170;28;20044;-58
2022/11/06 00:07:06;;;;;;;38.33;22.48;;;7.30;99.90;;;;;;5011904;28;20587;-59
2022/11/06 00:09:33;;;;;;;46.35;24.05;;;7.20;99.90;;;;;;4994249;28;20037;-59
2022/11/06 00:11:59;;;;;;;36.33;23.73;;;7.30;99.90;;;;;;5011654;28;20144;-60
2022/11/06 00:14:25;;;;;;;39.80;21.67;;;7.10;99.90;;;;;;4994211;28;20041;-61
2022/11/06 00:16:50;;;;;;;37.50;21.50;;;7.00;99.90;;;;;;4993634;28;20369;-60
2022/11/06 00:19:16;;;;;;;42.00;23.25;;;7.00;99.90;;;;;;5011908;28;20026;-61
2022/11/06 00:21:43;;;;;;;41.88;23.33;;;7.00;99.90;;;;;;4993913;28;20109;-61
2022/11/06 00:24:11;;;;;;;43.78;21.20;;;7.00;99.90;;;;;;5011967;28;20058;-60
2022/11/06 00:26:37;;;;;;;39.22;21.52;;;7.00;99.90;;;;;;5012022;28;20025;-61
2022/11/06 00:29:03;;;;;;;43.55;22.10;;;7.00;99.90;;;;;;4994086;28;20033;-61
2022/11/06 00:31:32;;;;;;;42.70;23.52;;;7.00;99.90;;;;;;5007994;28;20030;-62
2022/11/06 00:33:59;;;;;;;53.30;23.40;;;7.00;99.90;;;;;;5011402;28;20040;-61
2022/11/06 00:36:26;;;;;;;45.17;22.35;;;7.00;99.90;;;;;;5011735;28;20140;-57
2022/11/06 00:38:52;;;;;;;;;;;7.00;99.90;;;;;;4994047;28;20095;-59
2022/11/06 00:41:18;;;;;;;41.05;22.63;;;7.00;99.90;;;;;;5011303;28;19956;-59
2022/11/06 00:43:49;;;;;;;49.75;25.85;;;7.00;99.90;;;;;;5011154;28;20073;-61
2022/11/06 00:46:15;;;;;;;39.40;23.38;;;7.00;99.90;;;;;;4992998;28;20064;-60
2022/11/06 00:48:41;;;;;;;53.55;26.00;;;7.10;99.90;;;;;;4991829;28;20023;-59
2022/11/06 00:51:10;;;;;;;52.67;24.85;;;7.10;99.90;;;;;;4991578;28;20030;-61
2022/11/06 00:53:36;;;;;;;47.83;26.52;;;7.10;99.90;;;;;;4991539;28;20035;-59
2022/11/06 00:56:16;;;;;;;46.00;25.90;;;7.20;99.90;;;;;;4991501;28;20760;-61
2022/11/06 00:58:43;;;;;;;55.08;30.67;;;7.20;99.90;;;;;;4991520;28;20038;-60
2022/11/06 01:01:15;;;;;;;49.72;30.83;;;7.20;99.90;;;;;;4991566;28;20069;-57
2022/11/06 01:03:43;;;;;;;47.15;30.60;;;7.20;99.90;;;;;;4991279;28;20030;-58
2022/11/06 01:06:12;;;;;;;53.15;32.95;;;7.20;99.90;;;;;;4992882;28;20034;-57
2022/11/06 01:08:38;;;;;;;51.10;31.50;;;7.20;99.90;;;;;;5011002;28;20105;-63
2022/11/06 01:11:10;;;;;;;54.47;33.55;;;7.20;99.90;;;;;;5010473;28;20503;-60
2022/11/06 01:13:36;;;;;;;57.78;32.05;;;7.20;99.90;;;;;;5010745;28;20033;-57
2022/11/06 01:16:05;;;;;;;52.15;32.58;;;7.20;99.90;;;;;;5010829;28;20033;-62
2022/11/06 01:18:31;;;;;;;55.67;33.60;;;7.30;99.90;;;;;;5010630;28;20370;-58
2022/11/06 01:20:57;;;;;;;54.85;32.83;;;7.20;99.90;;;;;;5010512;28;20089;-58
2022/11/06 01:23:23;;;;;;;52.97;33.28;;;7.20;99.90;;;;;;5010267;28;20533;-57
2022/11/06 01:25:59;;;;;;;55.83;32.35;;;7.30;99.90;;;;;;5010670;28;20022;-59
2022/11/06 01:28:26;;;;;;;54.40;32.88;;;7.30;99.90;;;;;;5010589;28;20022;-61
2022/11/06 01:30:52;;;;;;;57.33;32.87;;;7.20;99.90;;;;;;4992766;28;20037;-60
2022/11/06 01:33:18;;;;;;;56.90;32.33;;;7.30;99.90;;;;;;5010352;28;20268;-57
2022/11/06 01:35:49;;;;;;;57.85;32.28;;;7.20;99.90;;;;;;5010449;28;20033;-59
2022/11/06 01:38:15;;;;;;;53.65;31.92;;;7.20;99.90;;;;;;5010373;28;20030;-58
2022/11/06 01:40:44;;;;;;;57.33;33.08;;;7.20;99.90;;;;;;5010333;28;20033;-65
2022/11/06 01:43:25;;;;;;;55.97;31.02;;;7.20;99.90;;;;;;5010126;28;20477;-63
2022/11/06 01:45:54;;;;;;;54.40;33.55;;;7.20;99.90;;;;;;4978380;28;20045;-61
2022/11/06 01:48:25;;;;;;;50.40;31.58;;;7.10;99.90;;;;;;4990866;28;20030;-63
2022/11/06 01:50:57;;;;;;;56.83;32.70;;;7.20;99.90;;;;;;4990926;28;20035;-58
2022/11/06 01:53:23;;;;;;;52.72;30.80;;;7.20;99.90;;;;;;4990464;28;20022;-60
2022/11/06 01:55:57;;;;;;;48.38;29.10;;;7.20;99.90;;;;;;4990553;28;20053;-60
2022/11/06 01:58:26;;;;;;;50.30;28.52;;;7.20;99.90;;;;;;4976193;28;20026;-59
2022/11/06 02:00:51;;;;;;;49.20;27.98;;;7.10;99.90;;;;;;5000772;28;20026;-61
2022/11/06 02:03:18;;;;;;;48.17;27.83;;;7.10;99.90;;;;;;5010609;28;20040;-61
2022/11/06 02:05:44;;;;;;;46.83;27.88;;;7.20;99.90;;;;;;5010495;28;20636;-63
2022/11/06 02:08:14;;;;;;;43.17;28.45;;;7.10;99.90;;;;;;5010399;28;20079;-58
2022/11/06 02:10:41;;;;;;;49.95;28.42;;;7.10;99.90;;;;;;5010483;28;20029;-60
2022/11/06 02:13:33;;;;;;;46.60;27.60;;;7.10;99.90;;;;;;5010159;28;20544;-65
2022/11/06 02:16:27;;;;;;;46.75;26.27;;;7.10;99.90;;;;;;4999403;28;20501;-63
2022/11/06 02:19:05;;;;;;;43.50;27.27;;;7.10;99.90;;;;;;4971002;28;20035;-60
2022/11/06 02:21:33;;;;;;;51.33;29.08;;;7.10;99.90;;;;;;4971316;28;20034;-61
2022/11/06 02:24:17;;;;;;;48.75;28.92;;;7.00;99.90;;;;;;4970972;28;20054;-60
2022/11/06 02:27:18;;;;;;;49.15;28.15;;;7.00;99.90;;;;;;4971125;28;20031;-60
2022/11/06 02:29:43;;;;;;;47.53;29.70;;;7.00;99.90;;;;;;4974330;28;20027;-61
2022/11/06 02:32:15;;;;;;;47.05;27.83;;;7.00;99.90;;;;;;4974878;28;20037;-63
2022/11/06 02:34:42;;;;;;;48.60;28.75;;;7.00;99.90;;;;;;4975297;28;20430;-63
2022/11/06 02:37:12;;;;;;;48.72;27.52;;;6.90;99.90;;;;;;4974516;28;20046;-61
2022/11/06 02:39:41;;;;;;;44.65;26.85;;;6.90;99.90;;;;;;4975197;28;20105;-62
2022/11/06 02:42:09;;;;;;;46.13;27.85;;;6.90;99.90;;;;;;4974690;28;20030;-59
2022/11/06 02:44:36;;;;;;;39.67;25.50;;;6.80;99.90;;;;;;4957480;28;20090;-59
2022/11/06 02:47:07;;;;;;;49.42;26.10;;;6.80;99.90;;;;;;4975370;28;20031;-59
2022/11/06 02:49:47;;;;;;;38.95;22.88;;;6.70;99.90;;;;;;4974843;28;20058;-59
2022/11/06 02:52:41;;;;;;;84.07;24.85;;;6.60;99.90;;;;;;4974603;28;20101;-63
2022/11/06 02:55:24;;;;;;;42.38;23.35;;;6.60;99.90;;;;;;5011121;28;20033;-62
2022/11/06 02:57:54;;;;;;;48.92;27.70;;;6.60;99.90;;;;;;5013489;28;20447;-59
2022/11/06 03:00:21;;;;;;;42.13;25.33;;;6.50;99.90;;;;;;5013781;28;20030;-57
2022/11/06 03:02:59;;;;;;;50.33;27.23;;;6.50;99.90;;;;;;5013394;28;20044;-63
2022/11/06 03:05:31;;;;;;;41.67;23.90;;;6.40;99.90;;;;;;5013569;28;20034;-61
2022/11/06 03:08:16;;;;;;;43.72;25.52;;;6.40;99.90;;;;;;5013840;28;20033;-63
2022/11/06 03:11:12;;;;;;;37.25;22.60;;;6.40;99.90;;;;;;5013650;28;20496;-60
2022/11/06 03:13:47;;;;;;;58.70;23.40;;;6.30;99.90;;;;;;5013529;28;20029;-64
2022/11/06 03:16:36;;;;;;;174.38;25.70;;;6.30;99.90;;;;;;4995897;28;20033;-60
2022/11/06 03:19:28;;;;;;;76.68;23.35;;;6.20;99.90;;;;;;5012722;28;20381;-64
2022/11/06 03:22:03;;;;;;;45.97;23.20;;;6.10;99.90;;;;;;5013024;28;20115;-63
2022/11/06 03:24:34;;;;;;;34.22;22.13;;;6.00;99.90;;;;;;5012709;28;20041;-60
2022/11/06 03:27:09;;;;;;;36.13;21.25;;;6.10;99.90;;;;;;5013129;28;20049;-60
2022/11/06 03:30:08;;;;;;;36.88;21.67;;;6.00;99.90;;;;;;5013072;28;20516;-58
2022/11/06 03:33:00;;;;;;;38.10;20.85;;;6.00;99.90;;;;;;5012322;28;20045;-63
2022/11/06 03:35:30;;;;;;;53.20;21.33;;;6.00;99.90;;;;;;5012697;28;20026;-59
2022/11/06 03:38:06;;;;;;;35.28;21.27;;;5.80;99.90;;;;;;5013193;28;20024;-63
2022/11/06 03:40:38;;;;;;;59.95;23.40;;;5.80;99.90;;;;;;5012925;28;20029;-61
2022/11/06 03:43:08;;;;;;;37.45;21.40;;;5.70;99.90;;;;;;5013068;28;20041;-62
2022/11/06 03:45:36;;;;;;;49.03;24.08;;;5.70;99.90;;;;;;5013022;28;20037;-64
2022/11/06 03:48:10;;;;;;;;;;;5.80;99.90;;;;;;5013321;28;20030;-59
2022/11/06 03:50:57;;;;;;;66.63;30.30;;;5.80;99.90;;;;;;5012893;28;19912;-64
2022/11/06 03:53:29;;;;;;;98.47;35.83;;;5.90;99.90;;;;;;5008733;28;20462;-61
2022/11/06 03:56:04;;;;;;;79.47;32.83;;;5.80;99.90;;;;;;4993209;28;20486;-58
2022/11/06 03:58:36;;;;;;;88.28;32.95;;;5.90;99.90;;;;;;4993485;28;20462;-60
2022/11/06 04:01:06;;;;;;;107.72;32.38;;;5.90;99.90;;;;;;4992791;28;20030;-57
2022/11/06 04:03:38;;;;;;;92.93;30.58;;;5.90;99.90;;;;;;4993068;28;20045;-60
2022/11/06 04:06:24;;;;;;;77.60;31.42;;;5.90;99.90;;;;;;4992949;28;20069;-61
2022/11/06 04:14:25;;;;;;;106.65;34.00;;;6.00;99.90;;;;;;4993045;28;20033;-60
2022/11/06 04:16:55;;;;;;;92.10;34.97;;;6.00;99.90;;;;;;4975256;28;20030;-58
2022/11/06 04:19:22;;;;;;;173.85;35.90;;;6.10;99.90;;;;;;4992794;28;20050;-60
2022/11/06 04:21:50;;;;;;;138.43;35.30;;;6.10;99.90;;;;;;4992308;28;20460;-60
2022/11/06 04:27:43;;;;;;;186.75;36.03;;;6.10;99.90;;;;;;4992649;28;20034;-58
2022/11/06 04:30:16;;;;;;;132.15;33.65;;;6.00;99.90;;;;;;4992604;28;20049;-64
2022/11/06 04:33:05;;;;;;;92.13;34.63;;;6.00;99.90;;;;;;4992512;28;20037;-61
2022/11/06 04:35:31;;;;;;;;;;;6.00;99.90;;;;;;4992577;28;20022;-60
2022/11/06 04:38:03;;;;;;;80.47;29.90;;;6.00;99.90;;;;;;4992441;28;19925;-63
2022/11/06 04:40:56;;;;;;;77.68;29.38;;;6.10;99.90;;;;;;4992267;28;20023;-62
2022/11/06 04:43:27;;;;;;;72.30;26.48;;;6.10;99.90;;;;;;4983005;28;20437;-62
2022/11/06 04:45:57;;;;;;;85.75;27.42;;;6.00;99.90;;;;;;4991997;28;20481;-58
2022/11/06 04:48:24;;;;;;;55.83;25.15;;;6.00;99.90;;;;;;4992116;28;20038;-59
2022/11/06 04:50:54;;;;;;;59.40;24.73;;;6.00;99.90;;;;;;4991428;28;20513;-63
2022/11/06 04:53:23;;;;;;;65.60;25.35;;;6.00;99.90;;;;;;4994646;28;20037;-60
2022/11/06 04:55:55;;;;;;;45.33;20.00;;;6.00;99.90;;;;;;5011302;28;20033;-63
2022/11/06 04:58:21;;;;;;;46.50;19.88;;;6.00;99.90;;;;;;5011418;28;20569;-62
2022/11/06 05:00:49;;;;;;;41.42;18.45;;;6.00;99.90;;;;;;5011046;28;20116;-64
2022/11/06 05:03:15;;;;;;;38.90;18.05;;;6.10;99.90;;;;;;5011294;28;20113;-60
2022/11/06 05:05:41;;;;;;;45.00;18.45;;;6.10;99.90;;;;;;5011375;28;20123;-63
2022/11/06 05:08:15;;;;;;;61.03;17.40;;;6.00;99.90;;;;;;5011060;28;20120;-63
2022/11/06 05:10:42;;;;;;;47.10;18.70;;;6.10;99.90;;;;;;4993701;28;20378;-65
2022/11/06 05:13:08;;;;;;;;;;;6.10;99.90;;;;;;5011495;28;20061;-62
2022/11/06 05:15:34;;;;;;;63.40;16.75;;;6.00;99.90;;;;;;5011181;28;19909;-63
2022/11/06 05:18:00;;;;;;;37.25;17.63;;;6.00;99.90;;;;;;5011163;28;20026;-63
2022/11/06 05:20:26;;;;;;;45.83;16.98;;;5.90;99.90;;;;;;4993501;28;20022;-63
2022/11/06 05:22:57;;;;;;;70.78;15.52;;;5.80;99.90;;;;;;5010612;28;20050;-64
2022/11/06 05:25:32;;;;;;;57.80;16.10;;;5.80;99.90;;;;;;5010639;28;20029;-62
2022/11/06 05:27:58;;;;;;;56.90;17.30;;;5.80;99.90;;;;;;5010631;28;20026;-63
2022/11/06 05:30:24;;;;;;;89.25;17.33;;;5.80;99.90;;;;;;5010650;28;20026;-60
2022/11/06 05:32:50;;;;;;;110.30;17.17;;;5.80;99.90;;;;;;5010818;28;20419;-59
2022/11/06 05:35:17;;;;;;;64.20;16.00;;;5.70;99.90;;;;;;5010759;28;20022;-65
2022/11/06 05:37:43;;;;;;;43.17;17.77;;;5.70;99.90;;;;;;5010725;28;20501;-62
2022/11/06 05:40:09;;;;;;;158.80;18.55;;;5.60;99.90;;;;;;5010297;28;20042;-63
2022/11/06 05:42:39;;;;;;;53.65;16.40;;;5.50;99.90;;;;;;5010571;28;20092;-60
2022/11/06 05:45:05;;;;;;;66.85;18.33;;;5.50;99.90;;;;;;5010306;28;20591;-60
2022/11/06 05:47:31;;;;;;;176.32;19.23;;;5.40;99.90;;;;;;5010546;28;20022;-65
2022/11/06 05:49:57;;;;;;;73.95;18.92;;;5.40;99.90;;;;;;5010495;28;20164;-63
2022/11/06 05:52:23;;;;;;;114.78;19.13;;;5.50;99.90;;;;;;5010526;28;20692;-63
2022/11/06 05:54:48;;;;;;;77.78;17.98;;;5.40;99.90;;;;;;4995107;28;20026;-63
2022/11/06 05:57:14;;;;;;;58.28;17.23;;;5.50;99.90;;;;;;4990831;28;20026;-64
2022/11/06 05:59:40;;;;;;;42.17;16.42;;;5.50;99.90;;;;;;4990797;28;20109;-64
2022/11/06 06:02:06;;;;;;;92.93;17.00;;;5.50;99.90;;;;;;4990814;28;20147;-64
2022/11/06 06:04:32;;;;;;;72.38;18.08;;;5.40;99.90;;;;;;4989957;28;20066;-62
2022/11/06 06:06:58;;;;;;;45.97;16.90;;;5.30;99.90;;;;;;4990823;28;20018;-64
2022/11/06 06:09:25;;;;;;;125.20;16.35;;;5.40;99.90;;;;;;4990861;28;20035;-64
2022/11/06 06:11:51;;;;;;;67.75;18.38;;;5.20;99.90;;;;;;4973223;28;20046;-60
2022/11/06 06:14:17;;;;;;;51.20;18.95;;;5.20;99.90;;;;;;4990907;28;20413;-60
2022/11/06 06:16:43;;;;;;;52.08;20.67;;;5.20;99.90;;;;;;4990196;28;20501;-62
2022/11/06 06:19:09;;;;;;;50.95;19.42;;;5.30;99.90;;;;;;4993009;28;20073;-62
2022/11/06 06:21:35;;;;;;;75.22;23.95;;;5.30;99.90;;;;;;4999843;28;20026;-63
2022/11/06 06:24:02;;;;;;;56.03;21.10;;;5.30;99.90;;;;;;4999087;28;20371;-63
2022/11/06 06:26:27;;;;;;;78.57;18.77;;;5.40;99.90;;;;;;5000365;28;20025;-59
2022/11/06 06:28:53;;;;;;;59.15;21.55;;;5.40;99.90;;;;;;4999463;28;20030;-62
2022/11/06 06:31:19;;;;;;;69.40;21.08;;;5.50;99.90;;;;;;4999860;28;20034;-65
2022/11/06 06:33:44;;;;;;;79.68;20.73;;;5.40;99.90;;;;;;5009993;28;20109;-66
2022/11/06 06:36:10;;;;;;;88.68;20.10;;;5.40;99.90;;;;;;4992393;28;20053;-65
2022/11/06 06:38:36;;;;;;;95.13;20.30;;;5.40;99.90;;;;;;5009842;28;20113;-64
2022/11/06 06:41:03;;;;;;;70.63;20.65;;;5.20;99.90;;;;;;5010031;28;20022;-63
2022/11/06 06:43:29;;;;;;;82.50;20.80;;;5.20;99.90;;;;;;4992347;28;20076;-63
2022/11/06 06:45:59;;;;;;;107.07;21.77;;;5.10;99.90;;;;;;5010112;28;20373;-65
2022/11/06 06:48:25;;;;;;;101.22;25.38;;;5.10;99.90;;;;;;5009729;28;20560;-64
2022/11/06 06:50:51;;;;;;;103.60;25.77;;;5.20;99.90;;;;;;4992150;28;20030;-65
2022/11/06 06:53:16;;;;;;;138.45;27.02;;;5.20;99.90;;;;;;5009058;28;20114;-63
2022/11/06 06:55:42;;;;;;;86.72;26.73;;;5.10;99.90;;;;;;4990225;28;20053;-67
2022/11/06 06:58:09;;;;;;;82.18;25.63;;;5.20;99.90;;;;;;4990265;28;20099;-65
2022/11/06 07:00:35;;;;;;;;;;;5.20;99.90;;;;;;4990602;28;20027;-59
2022/11/06 07:03:01;;;;;;;99.57;28.30;;;5.30;99.90;;;;;;4990084;28;19914;-62
2022/11/06 07:05:26;;;;;;;85.95;25.98;;;5.30;99.90;;;;;;4990341;28;20068;-62
2022/11/06 07:07:52;;;;;;;92.80;24.33;;;5.30;99.90;;;;;;4990126;28;20064;-64
2022/11/06 07:10:18;;;;;;;113.57;24.10;;;5.40;99.90;;;;;;4990346;28;20109;-65
2022/11/06 07:12:44;;;;;;;73.72;22.85;;;5.40;99.90;;;;;;4990112;28;20031;-62
2022/11/06 07:15:10;;;;;;;93.78;23.25;;;5.40;99.90;;;;;;4992222;28;20092;-66
2022/11/06 07:17:35;;;;;;;67.95;21.17;;;5.40;99.90;;;;;;4993737;28;20034;-65
2022/11/06 07:20:01;;;;;;;60.70;21.27;;;5.50;99.90;;;;;;4993803;28;20452;-63
2022/11/06 07:22:27;;;;;;;58.90;22.58;;;5.50;99.90;;;;;;4993268;28;20406;-63
2022/11/06 07:24:53;;;;;;;60.83;21.30;;;5.50;99.90;;;;;;4976281;28;20033;-63
2022/11/06 07:27:18;;;;;;;106.18;20.55;;;5.50;99.90;;;;;;4993590;28;20026;-65
2022/11/06 07:29:44;;;;;;;72.18;20.80;;;5.50;99.90;;;;;;4975939;28;20029;-62
2022/11/06 07:32:11;;;;;;;45.95;20.45;;;5.60;99.90;;;;;;4992947;28;20034;-63
2022/11/06 07:34:37;;;;;;;51.83;20.38;;;5.60;99.90;;;;;;4992857;28;20108;-60
2022/11/06 07:37:07;;;;;;;59.83;20.70;;;5.70;99.90;;;;;;4993245;28;20030;-62
2022/11/06 07:39:33;;;;;;;47.35;20.25;;;5.70;99.90;;;;;;4993076;28;20270;-59
2022/11/06 07:41:58;;;;;;;68.30;19.52;;;5.70;99.90;;;;;;4993248;28;20546;-65
2022/11/06 07:44:24;;;;;;;45.95;21.60;;;5.70;99.90;;;;;;4992957;28;20046;-59
2022/11/06 07:46:50;;;;;;;51.58;20.02;;;5.90;99.90;;;;;;4992996;28;20026;-59
2022/11/06 07:49:15;;;;;;;50.03;20.40;;;6.00;99.90;;;;;;4992519;28;20031;-61
2022/11/06 07:51:44;;;;;;;102.28;20.17;;;6.00;99.90;;;;;;4992833;28;20054;-65
2022/11/06 07:54:10;;;;;;;39.05;19.70;;;5.90;99.90;;;;;;4975139;28;20478;-64
2022/11/06 07:56:36;;;;;;;46.60;21.75;;;6.00;99.90;;;;;;4992583;28;20034;-62
2022/11/06 07:59:02;;;;;;;43.58;19.55;;;6.10;99.90;;;;;;4993055;28;20033;-63
2022/11/06 08:01:28;;;;;;;43.63;20.20;;;6.10;99.90;;;;;;4992466;28;20118;-63
2022/11/06 08:03:53;;;;;;;51.03;22.40;;;6.10;99.90;;;;;;4975307;28;20034;-63
2022/11/06 08:06:19;;;;;;;59.78;21.85;;;6.20;99.90;;;;;;4992955;28;20080;-65
2022/11/06 08:08:45;;;;;;;56.67;21.88;;;6.20;99.90;;;;;;4992795;28;20037;-63
2022/11/06 08:11:11;;;;;;;46.90;22.88;;;6.20;99.90;;;;;;4992268;28;20374;-61
2022/11/06 08:13:38;;;;;;;60.63;23.07;;;6.10;99.90;;;;;;4992834;28;20076;-62
2022/11/06 08:16:08;;;;;;;54.45;22.77;;;6.20;99.90;;;;;;4992709;28;20120;-68
2022/11/06 08:18:34;;;;;;;55.20;24.58;;;6.30;99.90;;;;;;4992325;28;20342;-64
2022/11/06 08:21:00;;;;;;;57.00;26.83;;;6.30;99.90;;;;;;4992848;28;20464;-63
2022/11/06 08:23:27;;;;;;;58.45;29.23;;;6.40;99.90;;;;;;5006784;28;20064;-62
2022/11/06 08:25:55;;;;;;;74.03;32.87;;;6.30;99.90;;;;;;5011253;28;20030;-62
2022/11/06 08:28:20;;;;;;;96.05;32.60;;;6.40;99.90;;;;;;5011935;28;20632;-58
2022/11/06 08:30:46;;;;;;;67.63;30.02;;;6.20;99.90;;;;;;4994234;28;20075;-60
2022/11/06 08:33:12;;;;;;;69.70;29.42;;;6.20;99.90;;;;;;4993705;28;20053;-61
2022/11/06 08:35:37;;;;;;;62.60;29.13;;;6.20;99.90;;;;;;5012054;28;20033;-64
2022/11/06 08:38:03;;;;;;;68.90;29.85;;;6.10;99.90;;;;;;5011677;28;20466;-64
2022/11/06 08:40:29;;;;;;;69.57;31.00;;;6.20;99.90;;;;;;5011360;28;20037;-62
2022/11/06 08:43:00;;;;;;;91.05;36.83;;;6.30;99.90;;;;;;5011865;28;20041;-64
2022/11/06 08:45:26;;;;;;;82.00;37.40;;;6.30;99.90;;;;;;5011219;28;20033;-59
2022/11/06 08:47:51;;;;;;;87.65;35.67;;;6.30;99.90;;;;;;5011508;28;20022;-60
2022/11/06 08:50:17;;;;;;;67.32;33.17;;;6.40;99.90;;;;;;5011599;28;20038;-59
2022/11/06 08:52:43;;;;;;;72.95;31.60;;;6.50;99.90;;;;;;5011095;28;20069;-59
2022/11/06 08:55:08;;;;;;;87.22;35.08;;;6.50;99.90;;;;;;5001136;28;20118;-61
2022/11/06 08:57:34;;;;;;;92.03;32.85;;;6.50;99.90;;;;;;4991438;28;20470;-65
2022/11/06 08:59:59;;;;;;;73.28;35.17;;;6.50;99.90;;;;;;4991605;28;20026;-66
2022/11/06 09:02:25;;;;;;;69.75;32.72;;;6.60;99.90;;;;;;4991727;28;20041;-61
2022/11/06 09:04:51;;;;;;;73.57;34.25;;;6.70;99.90;;;;;;4958213;28;20101;-63
2022/11/06 09:07:17;;;;;;;100.25;35.33;;;6.70;99.90;;;;;;4991941;28;20117;-62
2022/11/06 09:09:43;;;;;;;66.93;33.42;;;6.70;99.90;;;;;;4991521;28;20377;-65
2022/11/06 09:12:09;;;;;;;83.88;33.05;;;6.60;99.90;;;;;;4991544;28;20468;-64
2022/11/06 09:14:34;;;;;;;79.85;34.15;;;6.50;99.90;;;;;;4974298;28;20026;-63
2022/11/06 09:17:00;;;;;;;83.50;34.25;;;6.40;99.90;;;;;;4973653;28;20582;-64
2022/11/06 09:19:25;;;;;;;79.57;34.80;;;6.50;99.90;;;;;;4991009;28;20470;-59
2022/11/06 09:21:51;;;;;;;78.38;33.17;;;6.50;99.90;;;;;;4990995;28;20042;-58
2022/11/06 09:24:17;;;;;;;81.90;35.50;;;6.60;99.90;;;;;;4991146;28;20030;-60
2022/11/06 09:26:42;;;;;;;86.82;37.05;;;6.60;99.90;;;;;;4973445;28;20022;-59
2022/11/06 09:29:08;;;;;;;84.88;36.67;;;6.70;99.90;;;;;;4991441;28;20651;-63
2022/11/06 09:31:34;;;;;;;87.25;37.58;;;6.80;99.90;;;;;;4991148;28;20490;-64
2022/11/06 09:33:59;;;;;;;82.82;35.83;;;6.80;99.90;;;;;;4991093;28;20054;-66
2022/11/06 09:36:25;;;;;;;83.13;36.92;;;6.80;99.90;;;;;;4994277;28;20030;-63
2022/11/06 09:38:51;;;;;;;77.75;35.53;;;6.80;99.90;;;;;;5010273;28;20040;-64
2022/11/06 09:41:28;;;;;;;80.65;34.88;;;6.80;99.90;;;;;;5010592;28;20029;-62
2022/11/06 09:44:21;;;;;;;79.55;34.00;;;6.90;99.90;;;;;;5010426;28;20030;-64
2022/11/06 09:46:47;;;;;;;70.72;33.33;;;7.00;99.90;;;;;;5010537;28;20029;-62
2022/11/06 09:49:22;;;;;;;72.45;31.73;;;7.00;99.90;;;;;;5010402;28;20030;-63
2022/11/06 09:51:59;;;;;;;76.28;34.60;;;6.80;99.90;;;;;;5010365;28;20084;-64
2022/11/06 09:54:51;;;;;;;75.87;34.03;;;6.80;99.90;;;;;;5006559;28;20658;-63
2022/11/06 09:57:34;;;;;;;66.45;31.08;;;6.70;99.90;;;;;;4990043;28;20311;-62
2022/11/06 10:00:02;;;;;;;65.80;32.47;;;6.70;99.90;;;;;;4995350;28;20022;-59
2022/11/06 10:02:48;;;;;;;75.80;34.65;;;6.80;99.90;;;;;;4997743;28;20026;-62
2022/11/06 10:05:27;;;;;;;70.53;32.63;;;7.00;99.90;;;;;;4990489;28;20500;-60
2022/11/06 10:07:59;;;;;;;71.22;32.60;;;7.20;99.90;;;;;;4993176;28;20030;-58
2022/11/06 10:10:34;;;;;;;71.03;32.92;;;7.20;99.90;;;;;;4996863;28;20045;-58
2022/11/06 10:13:26;;;;;;;70.38;32.28;;;7.20;99.90;;;;;;4995407;28;20114;-58
2022/11/06 10:16:03;;;;;;;64.05;32.65;;;7.20;99.90;;;;;;4999223;28;20109;-63
2022/11/06 10:18:34;;;;;;;72.53;31.27;;;7.30;99.90;;;;;;4997825;28;20018;-64
2022/11/06 10:21:21;;;;;;;64.15;30.48;;;7.40;99.90;;;;;;4994479;28;20446;-62
2022/11/06 10:23:58;;;;;;;60.00;29.98;;;7.50;99.90;;;;;;4995692;28;20559;-60
2022/11/06 10:26:44;;;;;;;59.17;30.40;;;7.50;99.90;;;;;;4994494;28;20105;-63
2022/11/06 10:29:44;;;;;;;73.53;36.35;;;7.60;99.90;;;;;;4996811;28;20034;-59
2022/11/06 10:32:48;;;;;;;79.10;37.42;;;7.70;99.90;;;;;;4997465;28;20109;-58
2022/11/06 10:35:22;;;;;;;74.13;36.30;;;7.70;99.90;;;;;;4998541;28;20026;-63
2022/11/06 10:37:54;;;;;;;70.88;36.53;;;7.80;99.90;;;;;;4997189;28;20018;-64
2022/11/06 10:40:25;;;;;;;78.32;39.65;;;8.00;99.90;;;;;;4977406;28;20039;-63
2022/11/06 10:43:32;;;;;;;76.68;37.92;;;8.10;99.90;;;;;;5000150;28;20489;-60
2022/11/06 10:46:10;;;;;;;72.68;36.90;;;8.30;99.90;;;;;;4998624;28;20037;-63
2022/11/06 10:48:42;;;;;;;74.70;37.80;;;8.80;99.90;;;;;;4999281;28;20026;-60
2022/11/06 10:51:38;;;;;;;64.15;34.35;;;9.60;99.90;;;;;;5002363;28;20029;-61
2022/11/06 10:54:03;;;;;;;62.83;33.38;;;10.40;99.90;;;;;;5002086;28;20109;-63
2022/11/06 10:56:51;;;;;;;61.72;34.30;;;10.60;99.90;;;;;;5002111;28;20748;-65
2022/11/06 10:59:17;;;;;;;71.30;35.42;;;11.20;99.90;;;;;;5001508;28;20027;-64
2022/11/06 11:01:43;;;;;;;71.50;35.92;;;11.00;99.90;;;;;;4984829;28;20492;-60
2022/11/06 11:04:08;;;;;;;68.43;36.50;;;11.10;99.90;;;;;;5002994;28;20125;-60
2022/11/06 11:06:37;;;;;;;71.85;37.25;;;11.90;99.90;;;;;;5000286;28;20030;-63
2022/11/06 11:09:25;;;;;;;66.90;34.83;;;11.50;99.90;;;;;;5002258;28;20687;-60
2022/11/06 11:11:51;;;;;;;57.20;34.20;;;11.30;99.90;;;;;;5001768;28;20085;-60
2022/11/06 11:14:28;;;;;;;59.00;34.25;;;11.20;99.90;;;;;;4999756;28;20561;-60
2022/11/06 11:16:59;;;;;;;55.38;32.28;;;11.40;99.90;;;;;;5008925;28;20028;-59
2022/11/06 11:19:32;;;;;;;59.33;30.50;;;11.40;99.90;;;;;;5008907;28;20120;-60
2022/11/06 11:22:00;;;;;;;56.30;31.23;;;12.00;99.90;;;;;;5007494;28;20569;-60
2022/11/06 11:24:26;;;;;;;60.10;29.50;;;12.20;99.90;;;;;;5010236;28;20125;-60
2022/11/06 11:27:03;;;;;;;57.35;30.80;;;12.30;99.90;;;;;;5010171;28;20022;-59
2022/11/06 11:29:30;;;;;;;60.00;33.15;;;12.90;99.90;;;;;;5009236;28;20764;-64
2022/11/06 11:32:00;;;;;;;64.20;30.65;;;12.90;99.90;;;;;;5007630;28;20112;-62
2022/11/06 11:34:28;;;;;;;56.70;31.25;;;13.10;99.90;;;;;;5001594;28;20496;-61
2022/11/06 11:37:20;;;;;;;47.08;27.40;;;13.40;99.90;;;;;;5002409;28;20022;-61
2022/11/06 11:39:46;;;;;;;48.78;26.23;;;13.20;99.90;;;;;;5004720;28;20045;-61
2022/11/06 11:42:29;;;;;;;45.45;25.80;;;13.10;99.90;;;;;;5009756;28;20549;-61
2022/11/06 11:45:16;;;;;;;46.42;25.60;;;13.30;99.90;;;;;;5007041;28;20041;-60
2022/11/06 11:47:48;;;;;;;47.45;24.25;;;13.50;99.90;;;;;;5006530;28;20034;-58
2022/11/06 11:50:30;;;;;;;41.15;21.85;;;14.00;99.90;;;;;;5009163;28;20021;-60
2022/11/06 11:53:12;;;;;;;39.85;23.30;;;14.20;99.90;;;;;;5009780;28;20026;-58
2022/11/06 11:55:44;;;;;;;42.42;23.63;;;14.20;99.90;;;;;;5009932;28;20024;-58
2022/11/06 11:58:29;;;;;;;39.25;23.77;;;14.10;99.90;;;;;;5009447;28;20037;-60
2022/11/06 12:01:01;;;;;;;45.13;24.13;;;14.00;99.90;;;;;;4990347;28;20069;-59
2022/11/06 12:03:33;;;;;;;39.47;22.80;;;14.40;99.90;;;;;;5009830;28;20065;-59
2022/11/06 12:06:11;;;;;;;38.58;20.30;;;14.30;99.90;;;;;;5010038;28;20144;-59
2022/11/06 12:08:40;;;;;;;33.45;17.98;;;14.40;99.90;;;;;;4992112;28;20029;-61
2022/11/06 12:11:06;;;;;;;31.40;18.35;;;14.20;99.90;;;;;;5009848;28;20105;-58
2022/11/06 12:13:32;;;;;;;37.58;18.75;;;14.30;99.90;;;;;;4990905;28;20062;-62
2022/11/06 12:16:07;;;;;;;35.40;17.88;;;14.30;99.90;;;;;;5009161;28;20126;-61
2022/11/06 12:18:40;;;;;;;34.15;17.75;;;16.00;99.90;;;;;;5008800;28;20358;-60
2022/11/06 12:21:23;;;;;;;29.73;16.27;;;18.10;99.90;;;;;;4991617;28;20416;-62
2022/11/06 12:23:58;;;;;;;25.50;15.73;;;18.90;93.50;;;;;;5007257;28;20053;-61
2022/11/06 12:27:01;;;;;;;26.27;13.50;;;19.30;92.40;;;;;;4991108;28;20027;-59
2022/11/06 12:29:30;;;;;;;24.88;14.15;;;17.90;91.50;;;;;;5008042;28;20690;-56
2022/11/06 12:32:05;;;;;;;33.38;17.58;;;17.40;93.40;;;;;;5005231;28;20084;-58
2022/11/06 12:34:38;;;;;;;35.00;17.25;;;16.90;93.80;;;;;;5008038;28;20022;-62
2022/11/06 12:37:19;;;;;;;35.42;17.48;;;16.30;95.70;;;;;;5008026;28;20032;-58
2022/11/06 12:40:08;;;;;;;32.40;17.55;;;16.00;96.20;;;;;;4988895;28;20432;-57
2022/11/06 12:42:35;;;;;;;39.08;20.70;;;15.40;97.00;;;;;;5008963;28;20030;-61
2022/11/06 12:45:02;;;;;;;40.65;21.23;;;15.10;98.10;;;;;;5009148;28;20104;-64
2022/11/06 12:47:36;;;;;;;40.53;20.65;;;14.60;99.00;;;;;;5009087;28;20503;-61
2022/11/06 12:50:30;;;;;;;46.38;22.33;;;14.40;99.90;;;;;;5008932;28;20036;-60
2022/11/06 12:53:01;;;;;;;44.78;23.45;;;14.30;99.90;;;;;;5008440;28;20018;-58
2022/11/06 12:55:55;;;;;;;46.50;25.65;;;13.90;99.90;;;;;;5009645;28;20026;-63
2022/11/06 12:58:21;;;;;;;51.50;27.67;;;13.70;99.90;;;;;;5001042;28;20254;-58
2022/11/06 13:01:05;;;;;;;48.97;26.65;;;13.60;99.90;;;;;;5006629;28;20026;-62
2022/11/06 13:04:02;;;;;;;53.67;28.05;;;13.30;99.90;;;;;;5007360;28;20030;-62
2022/11/06 13:06:48;;;;;;;58.00;27.23;;;12.80;99.90;;;;;;5006873;28;20485;-60